createdAt,value
2022-08-05T00:01:36.499Z,2.88
2022-08-05T00:04:17.985Z,2.50
2022-08-05T00:06:45.367Z,2.58
2022-08-05T00:09:15.905Z,2.50
2022-08-05T00:11:48.691Z,2.30
2022-08-05T00:14:22.220Z,2.15
2022-08-05T00:16:54.757Z,2.17
2022-08-05T00:19:23.310Z,2.20
2022-08-05T00:21:52.122Z,2.13
2022-08-05T00:24:24.589Z,2.20
2022-08-05T00:26:58.632Z,2.20
2022-08-05T00:29:27.489Z,2.10
2022-08-05T00:32:12.809Z,2.22
2022-08-05T00:35:03.982Z,1.93
2022-08-05T00:37:35.714Z,1.95
2022-08-05T00:40:27.173Z,2.05
2022-08-05T00:43:00.674Z,2.45
2022-08-05T00:45:38.987Z,2.22
2022-08-05T00:48:11.914Z,2.20
2022-08-05T00:50:42.015Z,2.08
2022-08-05T00:53:44.954Z,1.75
2022-08-05T00:55:58.168Z,2.17
2022-08-05T00:58:27.510Z,2.10
2022-08-05T01:00:54.988Z,2.00
2022-08-05T01:03:23.324Z,2.00
2022-08-05T01:05:51.477Z,2.13
2022-08-05T01:08:40.996Z,1.70
2022-08-05T01:11:13.623Z,2.30
2022-08-05T01:14:11.286Z,1.80
2022-08-05T01:16:54.772Z,2.20
2022-08-05T01:19:56.402Z,1.60
2022-08-05T01:22:27.907Z,1.85
2022-08-05T01:25:40.999Z,2.08
2022-08-05T01:28:08.827Z,2.00
2022-08-05T01:30:39.966Z,1.90
2022-08-05T01:33:21.793Z,2.20
2022-08-05T01:35:57.444Z,2.10
2022-08-05T01:38:27.156Z,1.90
2022-08-05T01:40:57.602Z,1.70
2022-08-05T01:43:26.598Z,2.20
2022-08-05T01:45:56.157Z,1.98
2022-08-05T01:48:26.130Z,1.80
2022-08-05T01:50:56.343Z,1.90
2022-08-05T01:53:57.433Z,1.97
2022-08-05T01:58:12.660Z,2.08
2022-08-05T01:59:06.599Z,2.05
2022-08-05T02:01:39.755Z,1.95
2022-08-05T02:04:10.342Z,2.33
2022-08-05T02:06:38.936Z,1.70
2022-08-05T02:09:07.403Z,2.17
2022-08-05T02:11:48.148Z,2.00
2022-08-05T02:14:29.080Z,1.67
2022-08-05T02:17:08.023Z,1.67
2022-08-05T02:19:51.165Z,2.00
2022-08-05T02:22:27.486Z,1.70
2022-08-05T02:25:09.456Z,1.90
2022-08-05T02:27:59.905Z,1.80
2022-08-05T02:30:34.424Z,1.90
2022-08-05T02:33:03.083Z,1.67
2022-08-05T02:35:38.604Z,2.00
2022-08-05T02:38:19.525Z,1.90
2022-08-05T02:40:47.544Z,2.03
2022-08-05T02:43:16.808Z,1.92
2022-08-05T02:45:51.951Z,2.00
2022-08-05T02:48:29.488Z,2.10
2022-08-05T02:51:01.474Z,1.83
2022-08-05T02:53:39.628Z,2.00
2022-08-05T02:56:09.437Z,1.88
2022-08-05T02:58:43.793Z,1.93
2022-08-05T03:01:17.126Z,1.98
2022-08-05T03:04:03.383Z,1.80
2022-08-05T03:06:53.879Z,1.90
2022-08-05T03:09:36.463Z,2.00
2022-08-05T03:12:06.501Z,1.93
2022-08-05T03:14:35.022Z,2.10
2022-08-05T03:17:12.836Z,1.92
2022-08-05T03:19:39.574Z,1.90
2022-08-05T03:22:16.723Z,1.85
2022-08-05T03:24:47.215Z,2.03
2022-08-05T03:27:18.784Z,2.10
2022-08-05T03:30:08.111Z,2.03
2022-08-05T03:32:32.704Z,2.35
2022-08-05T03:35:00.074Z,2.33
2022-08-05T03:37:27.947Z,2.30
2022-08-05T03:40:01.301Z,2.30
2022-08-05T03:42:32.177Z,2.40
2022-08-05T03:44:59.576Z,2.40
2022-08-05T03:47:30.449Z,2.17
2022-08-05T03:50:02.155Z,1.93
2022-08-05T03:52:37.937Z,2.50
2022-08-05T03:56:05.325Z,2.50
2022-08-05T03:58:17.997Z,2.47
2022-08-05T04:00:51.694Z,2.40
2022-08-05T04:03:28.864Z,2.80
2022-08-05T04:05:58.068Z,2.60
2022-08-05T04:08:35.141Z,2.70
2022-08-05T04:11:06.890Z,2.72
2022-08-05T04:13:50.831Z,2.50
2022-08-05T04:16:25.254Z,2.70
2022-08-05T04:18:57.875Z,2.58
2022-08-05T04:22:08.672Z,2.65
2022-08-05T04:24:18.747Z,2.42
2022-08-05T04:26:48.376Z,2.67
2022-08-05T04:29:15.276Z,2.70
2022-08-05T04:31:42.893Z,2.58
2022-08-05T04:34:31.450Z,2.55
2022-08-05T04:36:56.766Z,2.50
2022-08-05T04:39:24.125Z,2.78
2022-08-05T04:41:54.181Z,2.70
2022-08-05T04:44:29.347Z,2.83
2022-08-05T04:46:59.002Z,2.88
2022-08-05T04:49:38.952Z,2.72
2022-08-05T04:52:14.656Z,2.70
2022-08-05T04:54:42.114Z,2.40
2022-08-05T04:57:08.940Z,2.90
2022-08-05T04:59:40.597Z,2.50
2022-08-05T05:02:37.020Z,2.58
2022-08-05T05:05:02.840Z,2.72
2022-08-05T05:07:32.870Z,2.10
2022-08-05T05:10:03.088Z,2.72
2022-08-05T05:12:29.970Z,2.50
2022-08-05T05:14:56.820Z,2.60
2022-08-05T05:17:55.887Z,2.55
2022-08-05T05:20:12.496Z,2.33
2022-08-05T05:22:40.915Z,2.55
2022-08-05T05:25:17.022Z,2.38
2022-08-05T05:27:53.456Z,2.40
2022-08-05T05:30:29.485Z,2.38
2022-08-05T05:33:00.613Z,2.13
2022-08-05T05:35:37.801Z,2.17
2022-08-05T05:38:05.759Z,1.98
2022-08-05T05:40:36.679Z,2.40
2022-08-05T05:43:03.642Z,1.98
2022-08-05T05:45:30.494Z,2.03
2022-08-05T05:48:05.321Z,1.90
2022-08-05T05:50:35.278Z,2.10
2022-08-05T05:53:20.811Z,2.00
2022-08-05T05:55:52.281Z,2.33
2022-08-05T05:58:30.228Z,2.30
2022-08-05T06:01:13.064Z,2.50
2022-08-05T06:04:01.052Z,2.33
2022-08-05T06:06:31.134Z,2.58
2022-08-05T06:09:00.364Z,2.00
2022-08-05T06:11:29.097Z,2.30
2022-08-05T06:13:56.820Z,2.33
2022-08-05T06:16:29.146Z,2.15
2022-08-05T06:19:00.990Z,2.33
2022-08-05T06:21:35.908Z,2.30
2022-08-05T06:24:11.969Z,2.33
2022-08-05T06:26:52.341Z,2.00
2022-08-05T06:29:43.034Z,2.67
2022-08-05T06:32:25.531Z,2.22
2022-08-05T06:34:56.419Z,2.70
2022-08-05T06:37:58.075Z,2.50
2022-08-05T06:40:12.756Z,2.45
2022-08-05T06:42:40.886Z,2.75
2022-08-05T06:45:09.342Z,2.40
2022-08-05T06:48:47.408Z,2.90
2022-08-05T06:50:24.105Z,2.20
2022-08-05T06:53:03.924Z,2.40
2022-08-05T06:55:37.945Z,2.38
2022-08-05T06:58:29.782Z,2.15
2022-08-05T07:01:00.877Z,2.40
2022-08-05T07:03:32.540Z,2.47
2022-08-05T07:06:06.033Z,2.90
2022-08-05T07:08:47.637Z,2.60
2022-08-05T07:11:22.370Z,2.35
2022-08-05T07:13:57.839Z,2.47
2022-08-05T07:18:00.995Z,2.77
2022-08-05T07:19:44.301Z,2.70
2022-08-05T07:22:06.644Z,2.55
2022-08-05T07:24:35.182Z,2.50
2022-08-05T07:27:10.974Z,2.40
2022-08-05T07:30:27.529Z,2.27
2022-08-05T07:32:26.368Z,2.60
2022-08-05T07:34:57.943Z,2.50
2022-08-05T07:37:36.013Z,2.72
2022-08-05T07:40:31.483Z,2.95
2022-08-05T07:42:54.787Z,2.50
2022-08-05T07:45:56.825Z,2.97
2022-08-05T07:48:08.587Z,2.38
2022-08-05T07:50:35.490Z,2.50
2022-08-05T07:53:03.791Z,2.67
2022-08-05T07:55:44.372Z,2.60
2022-08-05T07:58:57.625Z,2.65
2022-08-05T08:01:06.196Z,2.90
2022-08-05T08:03:44.261Z,2.67
2022-08-05T08:06:11.829Z,2.72
2022-08-05T08:08:38.660Z,2.90
2022-08-05T08:11:08.745Z,2.88
2022-08-05T08:13:49.414Z,3.47
2022-08-05T08:16:35.232Z,2.70
2022-08-05T08:19:09.584Z,2.72
2022-08-05T08:21:56.432Z,2.83
2022-08-05T08:24:45.952Z,2.80
2022-08-05T08:27:11.143Z,2.75
2022-08-05T08:30:06.485Z,2.60
2022-08-05T08:32:30.225Z,2.88
2022-08-05T08:34:59.366Z,2.90
2022-08-05T08:37:28.154Z,3.10
2022-08-05T08:39:55.118Z,2.80
2022-08-05T08:42:34.096Z,3.13
2022-08-05T08:45:24.221Z,2.88
2022-08-05T08:48:10.568Z,2.90
2022-08-05T08:51:03.296Z,2.90
2022-08-05T08:53:36.985Z,3.00
2022-08-05T08:56:06.176Z,2.92
2022-08-05T08:58:43.155Z,3.05
2022-08-05T09:01:16.413Z,3.23
2022-08-05T09:03:47.429Z,3.53
2022-08-05T09:06:18.664Z,3.15
2022-08-05T09:08:48.140Z,3.15
2022-08-05T09:11:15.253Z,3.33
2022-08-05T09:14:10.153Z,3.33
2022-08-05T09:16:30.531Z,3.30
2022-08-05T09:18:59.522Z,2.83
2022-08-05T09:22:17.544Z,3.10
2022-08-05T09:24:13.354Z,3.13
2022-08-05T09:26:47.224Z,3.23
2022-08-05T09:29:19.048Z,3.10
2022-08-05T09:32:40.694Z,3.00
2022-08-05T09:34:54.985Z,3.30
2022-08-05T09:38:16.959Z,3.35
2022-08-05T09:40:36.099Z,3.40
2022-08-05T09:43:04.497Z,3.60
2022-08-05T09:46:06.696Z,3.22
2022-08-05T09:48:31.311Z,3.30
2022-08-05T09:51:03.149Z,3.65
2022-08-05T09:53:54.489Z,3.43
2022-08-05T09:56:31.828Z,3.70
2022-08-05T09:59:04.209Z,3.47
2022-08-05T10:01:33.012Z,3.63
2022-08-05T10:04:01.642Z,3.63
2022-08-05T10:06:31.602Z,3.33
2022-08-05T10:09:25.092Z,3.60
2022-08-05T10:11:55.406Z,4.03
2022-08-05T10:14:28.512Z,4.38
2022-08-05T10:17:38.006Z,3.80
2022-08-05T10:20:10.808Z,3.77
2022-08-05T10:22:42.902Z,4.05
2022-08-05T10:25:15.948Z,4.03
2022-08-05T10:28:13.662Z,3.70
2022-08-05T10:32:46.715Z,3.92
2022-08-05T10:33:17.486Z,3.70
2022-08-05T10:35:49.648Z,4.15
2022-08-05T10:38:28.684Z,4.18
2022-08-05T10:41:46.874Z,4.40
2022-08-05T10:44:18.466Z,4.85
2022-08-05T10:46:54.432Z,4.37
2022-08-05T10:49:26.901Z,4.40
2022-08-05T10:52:00.201Z,4.70
2022-08-05T10:55:02.033Z,4.50
2022-08-05T10:57:32.326Z,4.80
2022-08-05T11:00:20.516Z,5.00
2022-08-05T11:03:25.532Z,4.63
2022-08-05T11:06:04.996Z,5.30
2022-08-05T11:08:37.092Z,5.10
2022-08-05T11:11:44.882Z,5.00
2022-08-05T11:15:00.860Z,4.80
2022-08-05T11:17:58.651Z,4.93
2022-08-05T11:20:32.527Z,4.65
2022-08-05T11:23:05.906Z,4.60
2022-08-05T11:26:05.144Z,5.15
2022-08-05T11:28:26.956Z,4.93
2022-08-05T11:30:58.456Z,5.63
2022-08-05T11:33:48.093Z,4.95
2022-08-05T11:36:34.376Z,5.38
2022-08-05T11:39:08.503Z,5.40
2022-08-05T11:42:00.797Z,5.60
2022-08-05T11:44:41.258Z,5.50
2022-08-05T11:47:15.200Z,4.78
2022-08-05T11:49:49.796Z,5.50
2022-08-05T11:52:29.726Z,5.72
2022-08-05T11:54:58.764Z,5.30
2022-08-05T11:58:08.165Z,5.38
2022-08-05T12:00:31.384Z,4.28
2022-08-05T12:02:58.486Z,3.90
2022-08-05T12:05:36.376Z,4.05
2022-08-05T12:08:11.754Z,4.50
2022-08-05T12:10:46.628Z,4.45
2022-08-05T12:13:27.987Z,3.70
2022-08-05T12:16:14.508Z,3.97
2022-08-05T12:18:42.637Z,3.85
2022-08-05T12:21:20.210Z,4.10
2022-08-05T12:24:07.096Z,6.35
2022-08-05T12:27:00.099Z,4.00
2022-08-05T12:29:37.933Z,3.53
2022-08-05T12:32:07.637Z,3.03
2022-08-05T12:34:38.103Z,3.73
2022-08-05T12:37:09.843Z,2.90
2022-08-05T12:39:41.152Z,3.70
2022-08-05T12:42:14.862Z,3.50
2022-08-05T12:44:43.229Z,4.43
2022-08-05T12:47:12.436Z,4.53
2022-08-05T12:50:02.346Z,5.13
2022-08-05T12:52:39.646Z,4.78
2022-08-05T12:55:25.630Z,4.43
2022-08-05T12:58:48.827Z,4.53
2022-08-05T13:02:00.257Z,4.33
2022-08-05T13:03:31.985Z,4.40
2022-08-05T13:06:00.145Z,4.70
2022-08-05T13:08:32.225Z,4.10
2022-08-05T13:11:02.402Z,4.55
2022-08-05T13:14:06.466Z,4.73
2022-08-05T13:16:25.280Z,4.93
2022-08-05T13:18:58.536Z,4.97
2022-08-05T13:21:27.782Z,5.38
2022-08-05T13:23:55.718Z,4.93
2022-08-05T13:26:29.792Z,5.30
2022-08-05T13:28:59.173Z,5.68
2022-08-05T13:31:33.796Z,4.80
2022-08-05T13:34:23.086Z,4.70
2022-08-05T13:36:55.497Z,5.18
2022-08-05T13:40:13.613Z,4.97
2022-08-05T13:42:13.965Z,5.18
2022-08-05T13:44:45.359Z,5.13
2022-08-05T13:47:34.831Z,5.57
2022-08-05T13:50:04.087Z,5.80
2022-08-05T13:52:35.420Z,6.00
2022-08-05T13:55:07.627Z,5.25
2022-08-05T13:57:51.050Z,5.82
2022-08-05T14:00:26.993Z,6.10
2022-08-05T14:03:01.059Z,5.75
2022-08-05T14:05:48.483Z,5.67
2022-08-05T14:08:21.385Z,5.65
2022-08-05T14:11:03.104Z,5.72
2022-08-05T14:13:42.235Z,5.55
2022-08-05T14:16:11.559Z,5.00
2022-08-05T14:18:38.565Z,5.47
2022-08-05T14:22:07.065Z,5.43
2022-08-05T14:23:52.388Z,5.70
2022-08-05T14:26:38.420Z,5.57
2022-08-05T14:29:16.180Z,6.45
2022-08-05T14:32:02.749Z,5.77
2022-08-05T14:34:35.404Z,5.43
2022-08-05T14:37:03.813Z,5.50
2022-08-05T14:39:50.271Z,5.93
2022-08-05T14:42:20.796Z,5.60
2022-08-05T14:44:49.096Z,5.70
2022-08-05T14:47:15.932Z,5.07
2022-08-05T14:49:59.410Z,5.60
2022-08-05T14:52:50.362Z,5.45
2022-08-05T14:55:15.663Z,5.47
2022-08-05T14:57:54.722Z,5.67
2022-08-05T15:00:29.537Z,6.00
2022-08-05T15:02:56.623Z,5.68
2022-08-05T15:05:30.118Z,6.05
2022-08-05T15:08:17.839Z,6.28
2022-08-05T15:10:58.669Z,5.40
2022-08-05T15:13:44.878Z,6.15
2022-08-05T15:16:13.193Z,5.55
2022-08-05T15:18:40.091Z,7.25
2022-08-05T15:21:08.363Z,6.18
2022-08-05T15:23:35.100Z,5.90
2022-08-05T15:26:05.024Z,7.03
2022-08-05T15:28:33.970Z,6.25
2022-08-05T15:31:00.751Z,6.30
2022-08-05T15:34:05.145Z,5.97
2022-08-05T15:36:24.159Z,6.43
2022-08-05T15:41:00.728Z,6.90
2022-08-05T15:41:56.338Z,5.97
2022-08-05T15:44:26.204Z,6.40
2022-08-05T15:46:55.787Z,6.97
2022-08-05T15:49:40.746Z,6.83
2022-08-05T15:52:16.269Z,6.07
2022-08-05T15:54:44.337Z,7.10
2022-08-05T15:57:11.229Z,6.57
2022-08-05T15:59:39.085Z,6.72
2022-08-05T16:02:09.596Z,6.33
2022-08-05T16:04:42.548Z,7.10
2022-08-05T16:07:10.670Z,6.22
2022-08-05T16:09:41.812Z,6.47
2022-08-05T16:12:09.093Z,5.70
2022-08-05T16:14:36.941Z,6.20
2022-08-05T16:17:04.039Z,5.63
2022-08-05T16:20:04.987Z,5.88
2022-08-05T16:22:17.750Z,6.20
2022-08-05T16:24:52.282Z,6.15
2022-08-05T16:27:19.572Z,6.13
2022-08-05T16:30:07.823Z,6.18
2022-08-05T16:32:50.376Z,6.68
2022-08-05T16:35:17.291Z,6.38
2022-08-05T16:38:03.707Z,5.95
2022-08-05T16:40:33.080Z,6.63
2022-08-05T16:42:59.927Z,6.00
2022-08-05T16:46:06.745Z,5.75
2022-08-05T16:48:25.161Z,6.20
2022-08-05T16:50:53.670Z,6.32
2022-08-05T16:53:22.359Z,6.13
2022-08-05T16:55:50.209Z,6.13
2022-08-05T16:58:19.641Z,6.32
2022-08-05T17:00:48.192Z,6.15
2022-08-05T17:03:20.339Z,5.93
2022-08-05T17:05:53.579Z,6.00
2022-08-05T17:08:33.439Z,6.43
2022-08-05T17:11:12.787Z,5.63
2022-08-05T17:13:45.252Z,6.85
2022-08-05T17:16:29.880Z,6.25
2022-08-05T17:18:59.213Z,6.37
2022-08-05T17:21:26.142Z,6.07
2022-08-05T17:24:30.167Z,6.15
2022-08-05T17:26:58.174Z,6.40
2022-08-05T17:29:34.063Z,5.93
2022-08-05T17:32:11.676Z,6.23
2022-08-05T17:34:43.721Z,6.25
2022-08-05T17:37:29.483Z,5.93
2022-08-05T17:39:59.836Z,5.85
2022-08-05T17:42:31.854Z,6.00
2022-08-05T17:44:59.229Z,5.70
2022-08-05T17:47:27.259Z,5.80
2022-08-05T17:50:04.016Z,5.63
2022-08-05T17:52:32.605Z,6.57
2022-08-05T17:55:00.516Z,5.93
2022-08-05T17:57:28.514Z,5.50
2022-08-05T18:00:03.665Z,5.80
2022-08-05T18:02:34.080Z,5.32
2022-08-05T18:05:01.892Z,6.07
2022-08-05T18:07:32.767Z,5.70
2022-08-05T18:10:10.436Z,7.10
2022-08-05T18:12:37.691Z,6.70
2022-08-05T18:15:05.668Z,6.43
2022-08-05T18:18:00.239Z,5.80
2022-08-05T18:20:29.336Z,5.28
2022-08-05T18:23:11.965Z,6.20
2022-08-05T18:25:45.369Z,5.53
2022-08-05T18:28:16.253Z,5.80
2022-08-05T18:30:45.356Z,5.70
2022-08-05T18:33:13.764Z,5.95
2022-08-05T18:36:01.197Z,5.90
2022-08-05T18:38:28.797Z,5.72
2022-08-05T18:41:54.127Z,6.03
2022-08-05T18:43:42.921Z,5.90
2022-08-05T18:46:15.853Z,5.15
2022-08-05T18:48:51.981Z,5.73
2022-08-05T18:52:04.278Z,5.50
2022-08-05T18:54:08.872Z,5.80
2022-08-05T18:56:35.968Z,5.43
2022-08-05T18:59:41.892Z,5.63
2022-08-05T19:01:57.024Z,5.90
2022-08-05T19:04:25.972Z,5.20
2022-08-05T19:06:53.589Z,5.10
2022-08-05T19:09:21.298Z,5.30
2022-08-05T19:12:00.075Z,5.05
2022-08-05T19:14:37.864Z,4.80
2022-08-05T19:17:17.382Z,4.90
2022-08-05T19:19:47.082Z,5.03
2022-08-05T19:22:17.039Z,5.00
2022-08-05T19:24:54.139Z,5.28
2022-08-05T19:27:27.745Z,5.17
2022-08-05T19:29:58.127Z,5.18
2022-08-05T19:32:26.268Z,5.18
2022-08-05T19:34:55.889Z,5.18
2022-08-05T19:37:35.105Z,8.40
2022-08-05T19:40:12.355Z,7.13
2022-08-05T19:43:00.889Z,9.07
2022-08-05T19:45:30.515Z,8.25
2022-08-05T19:48:04.320Z,6.57
2022-08-05T19:50:32.489Z,6.57
2022-08-05T19:53:09.495Z,6.87
2022-08-05T19:56:14.201Z,5.60
2022-08-05T19:58:28.504Z,6.22
2022-08-05T20:00:57.796Z,5.82
2022-08-05T20:03:26.263Z,5.75
2022-08-05T20:05:53.603Z,6.00
2022-08-05T20:08:24.595Z,5.50
2022-08-05T20:10:52.424Z,5.57
2022-08-05T20:13:30.349Z,5.80
2022-08-05T20:16:07.791Z,5.57
2022-08-05T20:18:36.903Z,5.10
2022-08-05T20:21:06.767Z,5.30
2022-08-05T20:23:40.409Z,5.20
2022-08-05T20:26:19.849Z,5.20
2022-08-05T20:28:51.215Z,4.40
2022-08-05T20:31:36.740Z,4.90
2022-08-05T20:34:05.064Z,4.25
2022-08-05T20:36:31.967Z,4.55
2022-08-05T20:38:59.611Z,4.10
2022-08-05T20:41:43.904Z,4.15
2022-08-05T20:44:18.694Z,3.97
2022-08-05T20:46:57.012Z,3.60
2022-08-05T20:49:26.046Z,4.03
2022-08-05T20:51:54.365Z,4.00
2022-08-05T20:54:25.623Z,3.92
2022-08-05T20:57:10.852Z,3.60
2022-08-05T20:59:46.305Z,3.30
2022-08-05T21:02:29.203Z,2.90
2022-08-05T21:04:55.998Z,3.20
2022-08-05T21:07:24.212Z,3.03
2022-08-05T21:09:53.770Z,3.27
2022-08-05T21:12:21.284Z,3.22
2022-08-05T21:14:48.004Z,3.20
2022-08-05T21:17:15.610Z,3.03
2022-08-05T21:19:47.268Z,3.20
2022-08-05T21:22:18.666Z,2.93
2022-08-05T21:24:51.375Z,2.90
2022-08-05T21:27:24.962Z,3.15
2022-08-05T21:29:52.647Z,3.42
2022-08-05T21:32:27.242Z,3.10
2022-08-05T21:35:17.849Z,3.20
2022-08-05T21:37:47.269Z,3.08
2022-08-05T21:40:21.033Z,3.08
2022-08-05T21:42:48.083Z,2.90
2022-08-05T21:45:24.669Z,3.05
2022-08-05T21:47:56.172Z,2.70
2022-08-05T21:50:26.515Z,2.80
2022-08-05T21:52:58.556Z,2.80
2022-08-05T21:55:43.140Z,3.20
2022-08-05T21:58:13.223Z,3.30
2022-08-05T22:00:40.329Z,2.60
2022-08-05T22:03:09.954Z,2.63
2022-08-05T22:05:49.061Z,2.88
2022-08-05T22:08:22.185Z,2.50
2022-08-05T22:10:51.887Z,2.70
2022-08-05T22:14:05.760Z,2.80
2022-08-05T22:16:32.166Z,2.85
2022-08-05T22:18:54.580Z,3.45
2022-08-05T22:21:25.660Z,2.80
2022-08-05T22:24:02.814Z,2.95
2022-08-05T22:26:35.723Z,2.70
2022-08-05T22:29:03.987Z,2.80
2022-08-05T22:31:30.988Z,3.55
2022-08-05T22:34:11.457Z,3.30
2022-08-05T22:36:48.203Z,3.30
2022-08-05T22:39:15.186Z,3.03
2022-08-05T22:42:09.898Z,3.35
2022-08-05T22:44:29.539Z,3.60
2022-08-05T22:46:56.530Z,3.55
2022-08-05T22:50:19.055Z,3.55
2022-08-05T22:52:15.391Z,3.67
2022-08-05T22:54:50.218Z,3.40
2022-08-05T22:57:17.041Z,4.00
2022-08-05T22:59:53.788Z,3.47
2022-08-05T23:02:28.988Z,3.40
2022-08-05T23:04:58.354Z,3.53
2022-08-05T23:07:30.333Z,3.53
2022-08-05T23:10:01.420Z,3.35
2022-08-05T23:12:32.663Z,3.33
2022-08-05T23:15:09.112Z,3.40
2022-08-05T23:17:59.720Z,3.17
2022-08-05T23:20:24.443Z,3.15
2022-08-05T23:22:56.032Z,3.30
2022-08-05T23:25:51.725Z,3.60
2022-08-05T23:28:12.202Z,3.80
2022-08-05T23:30:39.683Z,3.70
2022-08-05T23:33:22.037Z,3.80
2022-08-05T23:35:55.815Z,4.22
2022-08-05T23:38:24.508Z,4.30
2022-08-05T23:40:52.828Z,4.18
2022-08-05T23:43:25.369Z,4.00
2022-08-05T23:46:20.852Z,4.10
2022-08-05T23:49:00.326Z,4.03
2022-08-05T23:51:33.291Z,4.00
2022-08-05T23:54:01.463Z,3.80
2022-08-05T23:56:28.992Z,3.53
2022-08-05T23:58:58.686Z,4.05
